22NY weather

Troop A Headquarters Heliport
Batavia, New York, United States

Public forecast

Using degrees Fahrenheit for public forecast. Weather courtesy of forecast.io.

METAR (pilot weather report)

Closest report is Greater Rochester International Airport, 23.1 nm (42.8 km) ENE. Retrieved 2019/06/27 10:54 UTC (31 minutes ago):

KROC 271054Z 23006KT 10SM FEW180 SCT220 BKN270 19/15 A3016 RMK AO2 SLP211 T01890150

TAF (pilot weather forecast)

Closest forecast is Greater Rochester International Airport, 23.1 nm (42.8 km) ENE. Retrieved 2019/06/27 06:34 UTC (5 hours ago):

TAF KROC 270530Z 2706/2806 25004KT P6SM FEW250 FM271400 27005KT P6SM FEW250 FM272000 30008KT P6SM FEW050 FM280000 29004KT P6SM FEW250 FM280300 21004KT P6SM FEW250